Time;durP1;ratioP1;P1;durP2;ratioP2;P2;SDS_P1;SDS_P2;PMS_P1;PMS_P2;Temp;Humidity;BMP_temperature;BMP_pressure;BME280_temperature;BME280_humidity;BME280_pressure;Samples;Min_cycle;Max_cycle;Signal;HPM_P1;HPM_P2
2021/07/23 00:01:13;;;;;;;;;;;;;;;18.39;62.05;99706.72;5054521;28;837;-65
2021/07/23 00:03:41;;;;;;;;;;;;;;;18.16;62.88;99698.38;5054455;28;1981;-65
2021/07/23 00:06:08;;;;;;;;;;;;;;;18.01;63.18;99702.94;5054509;28;806;-65
2021/07/23 00:08:34;;;;;;;;;;;;;;;17.88;63.89;99710.59;5054558;28;838;-65
2021/07/23 00:11:01;;;;;;;;;;;;;;;17.81;64.18;99713.63;5054342;28;850;-65
2021/07/23 00:13:28;;;;;;;;;;;;;;;17.74;64.31;99707.06;5054226;28;965;-65
2021/07/23 00:15:54;;;;;;;;;;;;;;;17.69;64.74;99704.09;5053611;28;1210;-65
2021/07/23 00:18:21;;;;;;;;;;;;;;;17.66;64.99;99702.97;5054259;28;861;-65
2021/07/23 00:20:48;;;;;;;;;;;;;;;17.71;65.35;99710.78;5054138;28;818;-65
2021/07/23 00:23:15;;;;;;;;;;;;;;;17.86;64.84;99697.09;5054072;28;1921;-65
2021/07/23 00:25:42;;;;;;;;;;;;;;;18.11;64.46;99698.19;5053893;28;810;-65
2021/07/23 00:28:09;;;;;;;;;;;;;;;18.20;64.40;99695.44;5054064;28;861;-65
2021/07/23 00:30:35;;;;;;;;;;;;;;;18.27;64.18;99700.00;5053954;28;798;-65
2021/07/23 00:33:02;;;;;;;;;;;;;;;18.40;63.73;99697.88;5053951;28;842;-65
2021/07/23 00:35:28;;;;;;;;;;;;;;;18.54;63.34;99702.13;5053914;28;830;-65
2021/07/23 00:37:56;;;;;;;;;;;;;;;18.58;63.15;99691.56;5053808;28;912;-65
2021/07/23 00:40:26;;;;;;;;;;;;;;;18.73;62.51;99702.97;5053848;28;913;-65
2021/07/23 00:42:52;;;;;;;;;;;;;;;18.80;62.35;99699.94;5053692;28;1886;-65
2021/07/23 00:45:19;;;;;;;;;;;;;;;18.82;62.13;99705.84;5053717;28;877;-65
2021/07/23 00:47:48;;;;;;;;;;;;;;;18.81;62.19;99695.88;5053626;28;878;-65
2021/07/23 00:50:16;;;;;;;;;;;;;;;18.80;62.25;99685.94;5053689;28;822;-65
2021/07/23 00:52:43;;;;;;;;;;;;;;;18.79;62.05;99689.19;5053532;28;951;-65
2021/07/23 00:55:12;;;;;;;;;;;;;;;18.74;61.95;99696.16;5053747;28;847;-65
2021/07/23 00:57:39;;;;;;;;;;;;;;;18.69;62.06;99694.75;5053478;28;842;-65
2021/07/23 01:00:06;;;;;;;;;;;;;;;18.68;62.17;99689.59;5053430;28;973;-65
2021/07/23 01:02:33;;;;;;;;;;;;;;;18.67;62.44;99696.41;5053400;28;799;-65
2021/07/23 01:05:00;;;;;;;;;;;;;;;18.82;61.91;99691.06;5053247;28;1944;-65
2021/07/23 01:07:27;;;;;;;;;;;;;;;19.14;61.10;99698.16;5053659;28;803;-65
2021/07/23 01:09:53;;;;;;;;;;;;;;;19.28;60.56;99688.38;5053263;28;878;-65
2021/07/23 01:12:20;;;;;;;;;;;;;;;19.27;60.64;99689.63;5053444;28;943;-65
2021/07/23 01:14:47;;;;;;;;;;;;;;;19.18;60.87;99685.56;5053055;28;1224;-66
2021/07/23 01:17:14;;;;;;;;;;;;;;;19.18;60.91;99693.16;5053123;28;882;-65
2021/07/23 01:19:45;;;;;;;;;;;;;;;19.06;61.33;99683.66;5053052;28;867;-66
2021/07/23 01:22:12;;;;;;;;;;;;;;;18.95;61.88;99686.91;5053067;28;807;-65
2021/07/23 01:24:39;;;;;;;;;;;;;;;18.90;62.13;99693.09;5052819;28;1966;-65
2021/07/23 01:27:06;;;;;;;;;;;;;;;19.03;61.69;99689.41;5052693;28;811;-66
2021/07/23 01:29:33;;;;;;;;;;;;;;;19.17;61.36;99691.63;5052368;28;866;-65
2021/07/23 01:31:59;;;;;;;;;;;;;;;19.23;61.04;99683.38;5053047;28;830;-65
2021/07/23 01:34:26;;;;;;;;;;;;;;;19.38;60.59;99679.50;5052768;28;838;-65
2021/07/23 01:36:52;;;;;;;;;;;;;;;19.55;60.08;99677.16;5052738;28;874;-65
2021/07/23 01:39:19;;;;;;;;;;;;;;;19.64;59.58;99676.38;5052798;28;815;-66
2021/07/23 01:41:46;;;;;;;;;;;;;;;19.72;59.21;99674.84;5052619;28;874;-65
2021/07/23 01:44:13;;;;;;;;;;;;;;;19.75;58.87;99676.72;5052487;28;1886;-65
2021/07/23 01:46:39;;;;;;;;;;;;;;;19.83;58.57;99676.41;5052576;28;822;-65
2021/07/23 01:49:06;;;;;;;;;;;;;;;19.83;58.58;99682.03;5052521;28;869;-66
2021/07/23 01:51:33;;;;;;;;;;;;;;;19.79;58.46;99677.31;5052389;28;877;-65
2021/07/23 01:53:59;;;;;;;;;;;;;;;19.77;58.46;99676.25;5052342;28;821;-65
2021/07/23 01:56:26;;;;;;;;;;;;;;;19.75;58.35;99679.50;5052405;28;823;-65
2021/07/23 01:58:54;;;;;;;;;;;;;;;19.76;58.26;99681.09;5052298;28;877;-65
2021/07/23 02:01:19;;;;;;;;;;;;;;;19.76;58.26;99681.09;5052336;28;811;-65
2021/07/23 02:03:46;;;;;;;;;;;;;;;19.73;58.33;99686.84;5052107;28;1918;-65
2021/07/23 02:06:12;;;;;;;;;;;;;;;19.68;58.44;99679.03;5052157;28;856;-65
2021/07/23 02:08:39;;;;;;;;;;;;;;;19.55;58.96;99676.41;5052099;28;822;-65
2021/07/23 02:11:06;;;;;;;;;;;;;;;19.51;58.80;99679.34;5052084;28;819;-65
2021/07/23 02:13:32;;;;;;;;;;;;;;;19.42;58.95;99675.78;5052143;28;867;-65
2021/07/23 02:16:02;;;;;;;;;;;;;;;19.34;59.19;99676.06;5051835;28;1367;-66
2021/07/23 02:18:28;;;;;;;;;;;;;;;19.38;58.84;99681.53;5051971;28;826;-65
2021/07/23 02:20:55;;;;;;;;;;;;;;;19.38;58.77;99673.91;5051968;28;913;-65
2021/07/23 02:23:22;;;;;;;;;;;;;;;19.38;58.78;99687.91;5051692;28;1917;-65
2021/07/23 02:25:48;;;;;;;;;;;;;;;19.26;59.38;99668.44;5051861;28;802;-65
2021/07/23 02:28:15;;;;;;;;;;;;;;;19.15;59.58;99683.66;5051805;28;869;-65
2021/07/23 02:30:42;;;;;;;;;;;;;;;19.17;59.18;99684.00;5051776;28;893;-65
2021/07/23 02:33:09;;;;;;;;;;;;;;;19.15;59.38;99686.47;5051723;28;917;-65
2021/07/23 02:35:36;;;;;;;;;;;;;;;19.02;60.11;99682.25;5051887;28;877;-67
2021/07/23 02:38:02;;;;;;;;;;;;;;;19.12;59.25;99670.59;5051727;28;893;-65
2021/07/23 02:40:30;;;;;;;;;;;;;;;19.24;59.04;99682.13;5051570;28;854;-65
2021/07/23 02:42:55;;;;;;;;;;;;;;;19.20;59.18;99682.28;5051532;28;1949;-66
2021/07/23 02:45:22;;;;;;;;;;;;;;;19.21;59.09;99683.84;5051573;28;959;-65
2021/07/23 02:47:49;;;;;;;;;;;;;;;19.12;59.23;99681.81;5051541;28;862;-65
2021/07/23 02:50:16;;;;;;;;;;;;;;;19.00;59.55;99676.34;5051459;28;869;-65
2021/07/23 02:52:42;;;;;;;;;;;;;;;18.92;59.77;99679.41;5051466;28;838;-65
2021/07/23 02:55:09;;;;;;;;;;;;;;;18.89;59.77;99676.78;5051465;28;870;-65
2021/07/23 02:57:36;;;;;;;;;;;;;;;18.85;59.63;99676.16;5051434;28;791;-65
2021/07/23 03:00:03;;;;;;;;;;;;;;;18.86;59.14;99675.69;5051452;28;842;-65
2021/07/23 03:02:30;;;;;;;;;;;;;;;18.89;58.94;99669.16;5051409;28;874;-65
2021/07/23 03:04:57;;;;;;;;;;;;;;;18.89;58.86;99671.19;5051375;28;1956;-65
2021/07/23 03:07:23;;;;;;;;;;;;;;;18.94;58.47;99676.16;5051265;28;847;-65
2021/07/23 03:09:51;;;;;;;;;;;;;;;18.98;58.24;99665.59;5051382;28;835;-65
2021/07/23 03:12:17;;;;;;;;;;;;;;;19.10;57.69;99672.31;5051275;28;830;-66
2021/07/23 03:14:46;;;;;;;;;;;;;;;19.24;57.04;99671.69;5051293;28;1348;-65
2021/07/23 03:17:12;;;;;;;;;;;;;;;19.35;56.71;99676.84;5051327;28;921;-65
2021/07/23 03:19:39;;;;;;;;;;;;;;;19.39;56.33;99680.28;5051204;28;878;-65
2021/07/23 03:22:05;;;;;;;;;;;;;;;19.47;56.24;99673.13;5051108;28;799;-65
2021/07/23 03:24:34;;;;;;;;;;;;;;;19.55;56.09;99679.19;5051145;28;1981;-65
2021/07/23 03:27:01;;;;;;;;;;;;;;;19.63;55.66;99683.25;5051172;28;889;-66
2021/07/23 03:29:28;;;;;;;;;;;;;;;19.75;55.37;99687.94;5051417;28;811;-64
2021/07/23 03:31:54;;;;;;;;;;;;;;;19.78;55.23;99687.00;5051148;28;902;-65
2021/07/23 03:34:21;;;;;;;;;;;;;;;19.79;55.19;99688.53;5051125;28;870;-66
2021/07/23 03:36:47;;;;;;;;;;;;;;;19.90;54.43;99690.09;5051100;28;862;-65
2021/07/23 03:39:14;;;;;;;;;;;;;;;20.03;54.22;99693.50;5051112;28;901;-65
2021/07/23 03:41:42;;;;;;;;;;;;;;;20.14;53.97;99693.00;5051017;28;822;-65
2021/07/23 03:44:09;;;;;;;;;;;;;;;20.38;53.69;99695.91;5051019;28;1885;-65
2021/07/23 03:46:35;;;;;;;;;;;;;;;21.01;52.78;99693.31;5050963;28;925;-65
2021/07/23 03:49:02;;;;;;;;;;;;;;;21.51;51.30;99702.06;5051010;28;889;-66
2021/07/23 03:51:28;;;;;;;;;;;;;;;21.57;50.01;99694.53;5052345;28;806;-68
2021/07/23 03:53:55;;;;;;;;;;;;;;;21.41;50.24;99692.13;5054859;28;862;-65
2021/07/23 03:56:22;;;;;;;;;;;;;;;21.46;50.47;99696.31;5054697;28;873;-66
2021/07/23 03:58:50;;;;;;;;;;;;;;;21.40;49.98;99698.97;5054659;28;850;-65
2021/07/23 04:01:17;;;;;;;;;;;;;;;21.40;50.35;99696.16;5054640;28;862;-66
2021/07/23 04:03:44;;;;;;;;;;;;;;;21.47;50.89;99695.06;5054417;28;1881;-66
2021/07/23 04:06:11;;;;;;;;;;;;;;;21.44;50.44;99693.22;5054430;28;904;-66
2021/07/23 04:08:39;;;;;;;;;;;;;;;21.47;50.23;99690.22;5054437;28;795;-65
2021/07/23 04:11:06;;;;;;;;;;;;;;;21.50;50.53;99694.88;5054466;28;850;-65
2021/07/23 04:13:33;;;;;;;;;;;;;;;21.52;50.47;99689.53;5054487;28;1005;-65
2021/07/23 04:16:00;;;;;;;;;;;;;;;21.50;51.07;99692.06;5053992;28;1230;-65
2021/07/23 04:18:27;;;;;;;;;;;;;;;21.52;50.62;99694.41;5054193;28;901;-65
2021/07/23 04:20:53;;;;;;;;;;;;;;;21.54;50.74;99695.47;5054113;28;858;-65
2021/07/23 04:23:20;;;;;;;;;;;;;;;21.66;49.95;99692.88;5054087;28;1918;-65
2021/07/23 04:25:47;;;;;;;;;;;;;;;21.82;49.66;99689.59;5036252;28;1152;-65
2021/07/23 04:28:13;;;;;;;;;;;;;;;21.99;49.83;99684.28;5054063;28;897;-65
2021/07/23 04:30:39;;;;;;;;;;;;;;;22.13;50.86;99694.00;5054051;28;801;-66
2021/07/23 04:33:06;;;;;;;;;;;;;;;22.16;48.82;99685.34;5053967;28;823;-65
2021/07/23 04:35:33;;;;;;;;;;;;;;;22.29;48.03;99684.31;5054005;28;830;-65
2021/07/23 04:38:00;;;;;;;;;;;;;;;22.40;46.96;99684.47;5054122;28;902;-68
2021/07/23 04:40:26;;;;;;;;;;;;;;;22.48;47.38;99687.69;5053853;28;1044;-65
2021/07/23 04:42:53;;;;;;;;;;;;;;;22.47;47.27;99684.09;5053701;28;846;-65
2021/07/23 04:45:20;;;;;;;;;;;;;;;22.33;47.38;99688.47;5053865;28;1945;-65
2021/07/23 04:47:47;;;;;;;;;;;;;;;22.16;47.11;99684.56;5053906;28;886;-66
2021/07/23 04:50:13;;;;;;;;;;;;;;;22.05;47.48;99676.72;5053590;28;803;-65
2021/07/23 04:52:40;;;;;;;;;;;;;;;22.02;48.08;99686.16;5053661;28;933;-66
2021/07/23 04:55:08;;;;;;;;;;;;;;;22.06;47.98;99680.31;5053525;28;928;-66
2021/07/23 04:57:44;;;;;;;;;;;;;;;22.11;47.42;99683.22;5053579;28;819;-65
2021/07/23 05:00:11;;;;;;;;;;;;;;;22.25;47.24;99680.91;5053462;28;878;-66
2021/07/23 05:02:41;;;;;;;;;;;;;;;22.36;47.03;99683.91;5052562;28;830;-67
2021/07/23 05:05:12;;;;;;;;;;;;;;;22.55;46.97;99687.28;5053338;28;1886;-65
2021/07/23 05:15:24;;;;;;;;;;;;;;;22.92;45.46;99684.78;5096479;22;1768;-67
2021/07/23 05:17:51;;;;;;;;;;;;;;;23.03;46.32;99689.81;5035273;28;1238;-66
2021/07/23 05:20:17;;;;;;;;;;;;;;;23.27;45.62;99692.44;5053124;28;810;-66
2021/07/23 05:22:44;;;;;;;;;;;;;;;23.60;44.74;99688.47;5053059;28;869;-66
2021/07/23 05:25:11;;;;;;;;;;;;;;;24.12;44.41;99684.91;5053002;28;1979;-66
2021/07/23 05:27:37;;;;;;;;;;;;;;;24.51;42.61;99699.38;5053009;28;885;-67
2021/07/23 05:30:06;;;;;;;;;;;;;;;24.78;42.24;99697.28;5052795;28;1159;-66
2021/07/23 05:32:33;;;;;;;;;;;;;;;24.88;42.30;99698.63;5052889;28;810;-67
2021/07/23 05:35:00;;;;;;;;;;;;;;;25.02;42.22;99703.31;5052798;28;841;-68
2021/07/23 05:37:27;;;;;;;;;;;;;;;25.22;41.80;99701.66;5034994;28;874;-66
2021/07/23 05:39:53;;;;;;;;;;;;;;;25.86;40.34;99699.28;5052733;28;893;-66
2021/07/23 05:42:20;;;;;;;;;;;;;;;26.31;38.37;99701.44;5052684;28;850;-67
2021/07/23 05:44:47;;;;;;;;;;;;;;;26.55;38.05;99701.69;5052390;28;1910;-66
2021/07/23 05:47:14;;;;;;;;;;;;;;;26.98;37.20;99701.41;5052607;28;814;-67
2021/07/23 05:49:39;;;;;;;;;;;;;;;27.06;36.50;99708.09;5052555;28;830;-66
2021/07/23 05:52:06;;;;;;;;;;;;;;;27.09;36.99;99703.44;5052442;28;888;-66
2021/07/23 05:54:32;;;;;;;;;;;;;;;27.39;36.21;99705.69;5052498;28;798;-66
2021/07/23 05:56:59;;;;;;;;;;;;;;;28.03;35.89;99703.53;5052438;28;826;-66
2021/07/23 05:59:26;;;;;;;;;;;;;;;28.42;34.71;99707.38;5052321;28;850;-65
2021/07/23 06:01:52;;;;;;;;;;;;;;;28.88;33.93;99708.56;5052349;28;811;-65
2021/07/23 06:04:19;;;;;;;;;;;;;;;28.91;34.01;99704.63;5052266;28;1894;-64
2021/07/23 06:06:46;;;;;;;;;;;;;;;29.10;33.12;99704.72;5052202;28;854;-65
2021/07/23 06:09:13;;;;;;;;;;;;;;;28.93;33.14;99710.56;5052279;28;782;-65
2021/07/23 06:11:40;;;;;;;;;;;;;;;29.17;33.62;99709.03;5052127;28;815;-65
2021/07/23 06:14:07;;;;;;;;;;;;;;;29.62;32.29;99714.97;5033698;28;1222;-65
2021/07/23 06:16:34;;;;;;;;;;;;;;;29.65;31.70;99701.72;5052074;28;880;-64
2021/07/23 06:19:01;;;;;;;;;;;;;;;29.46;31.83;99701.69;5052066;28;858;-66
2021/07/23 06:21:28;;;;;;;;;;;;;;;29.30;31.98;99709.91;5034049;28;1298;-64
2021/07/23 06:23:54;;;;;;;;;;;;;;;29.68;31.83;99709.16;5051792;28;1906;-64
2021/07/23 06:26:21;;;;;;;;;;;;;;;29.66;31.25;99712.56;5051908;28;830;-64
2021/07/23 06:28:47;;;;;;;;;;;;;;;29.73;31.36;99710.44;5051842;28;893;-64
2021/07/23 06:31:16;;;;;;;;;;;;;;;29.83;30.51;99700.19;5051846;28;897;-64
2021/07/23 06:33:43;;;;;;;;;;;;;;;30.13;30.31;99697.16;5051848;28;842;-64
2021/07/23 06:36:10;;;;;;;;;;;;;;;30.35;30.16;99703.84;5051694;28;795;-63
2021/07/23 06:38:36;;;;;;;;;;;;;;;30.64;29.82;99693.47;5051880;28;822;-63
2021/07/23 06:41:04;;;;;;;;;;;;;;;31.38;29.44;99695.72;5051720;28;822;-65
2021/07/23 06:43:30;;;;;;;;;;;;;;;31.26;28.38;99695.16;5051679;28;1885;-63
2021/07/23 06:45:57;;;;;;;;;;;;;;;30.93;28.93;99698.16;5051693;28;819;-63
2021/07/23 06:48:24;;;;;;;;;;;;;;;30.90;28.92;99696.41;5051544;28;870;-64
2021/07/23 06:50:51;;;;;;;;;;;;;;;30.51;28.96;99706.41;5051544;28;802;-65
2021/07/23 06:53:18;;;;;;;;;;;;;;;30.44;29.73;99700.56;5051719;28;830;-64
2021/07/23 06:55:45;;;;;;;;;;;;;;;30.64;28.71;99707.72;5051576;28;886;-64
2021/07/23 06:58:12;;;;;;;;;;;;;;;30.28;29.22;99694.63;5051473;28;913;-64
2021/07/23 07:00:38;;;;;;;;;;;;;;;30.44;29.29;99701.34;5051462;28;901;-64
2021/07/23 07:03:08;;;;;;;;;;;;;;;30.44;28.17;99695.63;5051337;28;1957;-63
2021/07/23 07:05:35;;;;;;;;;;;;;;;30.49;27.55;99699.69;5051404;28;874;-64
2021/07/23 07:08:02;;;;;;;;;;;;;;;30.23;28.67;99694.66;5051693;28;845;-64
2021/07/23 07:10:28;;;;;;;;;;;;;;;30.29;28.68;99693.28;5051681;28;818;-64
2021/07/23 07:12:55;;;;;;;;;;;;;;;30.94;28.67;99690.38;5051282;28;854;-65
2021/07/23 07:15:22;;;;;;;;;;;;;;;31.52;27.24;99683.75;5051094;28;1215;-63
2021/07/23 07:17:48;;;;;;;;;;;;;;;31.39;26.75;99692.31;5051398;28;849;-63
2021/07/23 07:20:16;;;;;;;;;;;;;;;31.45;27.28;99687.28;5051255;28;880;-64
2021/07/23 07:22:43;;;;;;;;;;;;;;;31.46;26.46;99685.97;5051285;28;841;-63
2021/07/23 07:25:10;;;;;;;;;;;;;;;31.30;26.45;99695.59;5051500;28;1964;-65
2021/07/23 07:27:37;;;;;;;;;;;;;;;31.04;26.66;99690.69;5054643;28;821;-64
2021/07/23 07:30:03;;;;;;;;;;;;;;;31.31;27.18;99694.31;5055244;28;873;-64
2021/07/23 07:32:30;;;;;;;;;;;;;;;31.86;26.42;99700.16;5055058;28;1026;-64
2021/07/23 07:34:56;;;;;;;;;;;;;;;32.22;26.32;99699.59;5055351;28;826;-63
2021/07/23 07:37:22;;;;;;;;;;;;;;;32.87;25.31;99694.03;5055144;28;829;-64
2021/07/23 07:39:49;;;;;;;;;;;;;;;32.91;24.88;99697.31;5055018;28;866;-64
2021/07/23 07:42:16;;;;;;;;;;;;;;;32.66;23.11;99685.50;5055037;28;818;-64
2021/07/23 07:44:42;;;;;;;;;;;;;;;31.22;26.20;99701.22;5054899;28;1881;-65
2021/07/23 07:47:09;;;;;;;;;;;;;;;30.87;27.97;99696.72;5054929;28;866;-64
2021/07/23 07:49:35;;;;;;;;;;;;;;;31.20;26.37;99697.41;5054830;28;865;-65
2021/07/23 07:52:03;;;;;;;;;;;;;;;30.97;26.63;99697.06;5054840;28;798;-66
2021/07/23 07:54:31;;;;;;;;;;;;;;;31.25;25.91;99696.50;5054709;28;806;-64
2021/07/23 07:57:05;;;;;;;;;;;;;;;31.46;26.78;99699.47;5054731;28;889;-64
2021/07/23 07:59:32;;;;;;;;;;;;;;;31.95;25.80;99693.94;5054836;28;897;-63
2021/07/23 08:01:58;;;;;;;;;;;;;;;32.99;25.69;99694.50;5054648;28;905;-63
2021/07/23 08:04:24;;;;;;;;;;;;;;;33.05;24.79;99692.25;5054515;28;1886;-63
2021/07/23 08:06:51;;;;;;;;;;;;;;;32.79;25.38;99696.06;5054500;28;904;-63
2021/07/23 08:09:20;;;;;;;;;;;;;;;32.80;25.08;99689.03;5054481;28;822;-64
2021/07/23 08:11:47;;;;;;;;;;;;;;;32.67;24.82;99695.63;5054441;28;898;-64
2021/07/23 08:14:13;;;;;;;;;;;;;;;33.27;24.27;99682.28;5054219;28;1169;-63
2021/07/23 08:16:40;;;;;;;;;;;;;;;33.30;24.76;99692.59;5054365;28;834;-64
2021/07/23 08:19:07;;;;;;;;;;;;;;;33.22;23.59;99706.09;5054287;28;819;-64
2021/07/23 08:21:34;;;;;;;;;;;;;;;32.73;24.62;99692.59;5054195;28;897;-63
2021/07/23 08:24:01;;;;;;;;;;;;;;;32.54;24.40;99687.13;5054157;28;1938;-64
2021/07/23 08:26:27;;;;;;;;;;;;;;;32.61;24.64;99694.25;5054159;28;901;-64
2021/07/23 08:28:54;;;;;;;;;;;;;;;32.54;24.12;99701.44;5054344;28;846;-63
2021/07/23 08:31:21;;;;;;;;;;;;;;;32.07;25.00;99705.13;5054094;28;815;-64
2021/07/23 08:33:48;;;;;;;;;;;;;;;31.85;25.42;99703.56;5053983;28;823;-64
2021/07/23 08:36:15;;;;;;;;;;;;;;;32.16;26.06;99698.97;5054034;28;802;-63
2021/07/23 08:38:41;;;;;;;;;;;;;;;31.92;25.00;99700.78;5053791;28;810;-64
2021/07/23 08:41:10;;;;;;;;;;;;;;;31.47;26.57;99695.28;5053781;28;932;-64
2021/07/23 08:43:37;;;;;;;;;;;;;;;31.70;26.38;99692.72;5053745;28;1877;-64
2021/07/23 08:46:04;;;;;;;;;;;;;;;32.28;26.58;99679.44;5053813;28;814;-63
2021/07/23 08:48:32;;;;;;;;;;;;;;;32.77;25.05;99681.56;5035916;28;1358;-63
2021/07/23 08:50:58;;;;;;;;;;;;;;;33.13;25.89;99695.16;5053761;28;815;-64
2021/07/23 08:53:24;;;;;;;;;;;;;;;33.03;25.38;99680.59;5053681;28;811;-63
2021/07/23 08:55:51;;;;;;;;;;;;;;;32.89;26.11;99679.16;5053590;28;810;-64
2021/07/23 08:58:20;;;;;;;;;;;;;;;32.75;26.18;99687.06;5053628;28;887;-63
2021/07/23 09:00:46;;;;;;;;;;;;;;;32.69;26.54;99675.78;5053562;28;802;-63
2021/07/23 09:03:13;;;;;;;;;;;;;;;33.19;26.16;99674.97;5053412;28;1985;-63
2021/07/23 09:05:45;;;;;;;;;;;;;;;33.54;26.58;99679.13;5053417;28;837;-62
2021/07/23 09:08:15;;;;;;;;;;;;;;;32.50;27.24;99681.72;5053626;28;885;-64
2021/07/23 09:10:42;;;;;;;;;;;;;;;31.71;26.96;99682.84;5053795;28;884;-64
2021/07/23 09:13:10;;;;;;;;;;;;;;;31.38;28.62;99678.59;5053365;28;892;-63
2021/07/23 09:15:40;;;;;;;;;;;;;;;31.68;27.26;99666.78;5053078;28;1168;-63
2021/07/23 09:18:18;;;;;;;;;;;;;;;31.91;25.48;99670.66;5053332;28;877;-64
2021/07/23 09:20:55;;;;;;;;;;;;;;;31.11;27.18;99676.53;5053155;28;806;-63
2021/07/23 09:23:31;;;;;;;;;;;;;;;30.69;28.04;99670.56;5053052;28;1918;-63
2021/07/23 09:26:04;;;;;;;;;;;;;;;30.73;28.50;99673.09;5053300;28;869;-63
2021/07/23 09:28:32;;;;;;;;;;;;;;;30.73;27.82;99668.16;5053123;28;932;-64
2021/07/23 09:31:01;;;;;;;;;;;;;;;30.67;28.23;99664.63;5053291;28;802;-65
2021/07/23 09:33:31;;;;;;;;;;;;;;;30.70;27.96;99648.50;5052867;28;827;-64
2021/07/23 09:35:59;;;;;;;;;;;;;;;30.65;28.98;99663.66;5052817;28;857;-63
2021/07/23 09:38:33;;;;;;;;;;;;;;;30.60;28.84;99653.09;5034888;28;1183;-63
2021/07/23 09:41:00;;;;;;;;;;;;;;;30.91;28.51;99660.84;5052894;28;815;-63
2021/07/23 09:43:30;;;;;;;;;;;;;;;30.55;28.84;99656.84;5052629;28;1893;-62
2021/07/23 09:46:17;;;;;;;;;;;;;;;30.63;29.63;99640.63;5052687;28;775;-63
2021/07/23 09:48:44;;;;;;;;;;;;;;;30.93;28.47;99635.38;5052046;28;1603;-62
2021/07/23 09:51:14;;;;;;;;;;;;;;;30.96;27.79;99635.59;5052496;28;842;-63
2021/07/23 09:53:40;;;;;;;;;;;;;;;30.51;28.55;99632.28;5052520;28;830;-64
2021/07/23 09:56:08;;;;;;;;;;;;;;;29.95;28.76;99643.81;5052651;28;838;-63
2021/07/23 09:58:39;;;;;;;;;;;;;;;29.84;29.80;99637.00;5052417;28;862;-63
2021/07/23 10:01:10;;;;;;;;;;;;;;;30.03;29.29;99642.66;5052512;28;782;-63
2021/07/23 10:03:39;;;;;;;;;;;;;;;29.91;30.06;99642.06;5052314;28;1957;-63
2021/07/23 10:06:17;;;;;;;;;;;;;;;29.67;29.79;99634.38;5052263;28;862;-63
2021/07/23 10:08:47;;;;;;;;;;;;;;;29.46;30.88;99642.69;5052069;28;861;-63
2021/07/23 10:11:17;;;;;;;;;;;;;;;29.26;29.58;99643.22;5052494;28;810;-63
2021/07/23 10:13:45;;;;;;;;;;;;;;;29.13;31.02;99648.84;5052479;28;995;-64
2021/07/23 10:16:12;;;;;;;;;;;;;;;29.13;31.26;99635.38;5051980;28;1363;-64
2021/07/23 10:18:39;;;;;;;;;;;;;;;28.89;30.87;99644.66;5052029;28;881;-63
2021/07/23 10:21:06;;;;;;;;;;;;;;;28.76;31.60;99642.47;5052060;28;850;-63
2021/07/23 10:23:35;;;;;;;;;;;;;;;28.84;30.76;99637.72;5051874;28;1922;-63
2021/07/23 10:26:03;;;;;;;;;;;;;;;28.84;31.05;99629.19;5051980;28;909;-63
2021/07/23 10:28:52;;;;;;;;;;;;;;;28.94;31.06;99632.47;5051917;28;830;-64
2021/07/23 10:31:24;;;;;;;;;;;;;;;28.98;29.69;99630.09;5051877;28;842;-64
2021/07/23 10:33:57;;;;;;;;;;;;;;;28.85;30.95;99632.84;5051808;28;873;-65
2021/07/23 10:36:27;;;;;;;;;;;;;;;29.26;30.28;99617.63;5051868;28;840;-64
2021/07/23 10:39:07;;;;;;;;;;;;;;;29.51;29.95;99616.22;5052066;28;810;-63
2021/07/23 10:41:34;;;;;;;;;;;;;;;29.10;30.09;99614.47;5051626;28;897;-64
2021/07/23 10:44:01;;;;;;;;;;;;;;;28.94;30.62;99623.16;5051601;28;1898;-63
2021/07/23 10:46:43;;;;;;;;;;;;;;;29.07;30.75;99615.47;5051661;28;826;-64
2021/07/23 10:49:10;;;;;;;;;;;;;;;29.27;30.56;99613.44;5051590;28;955;-63
2021/07/23 10:51:55;;;;;;;;;;;;;;;29.25;30.14;99618.91;5051707;28;825;-65
2021/07/23 10:54:23;;;;;;;;;;;;;;;29.22;30.92;99614.31;5033656;28;1192;-64
2021/07/23 10:57:01;;;;;;;;;;;;;;;29.53;30.19;99607.13;5051589;28;849;-64
2021/07/23 11:02:08;;;;;;;;;;;;;;;29.95;30.25;99592.53;5050618;28;872;-64
2021/07/23 11:04:34;;;;;;;;;;;;;;;30.68;30.30;99589.19;5051386;28;1956;-63
2021/07/23 11:07:02;;;;;;;;;;;;;;;30.70;27.78;99586.56;5051418;28;817;-64
2021/07/23 11:09:36;;;;;;;;;;;;;;;29.91;29.19;99587.94;5051249;28;830;-63
2021/07/23 11:12:15;;;;;;;;;;;;;;;29.15;30.65;99604.31;5051339;28;1053;-63
2021/07/23 11:14:41;;;;;;;;;;;;;;;29.04;30.29;99593.81;5050969;28;1125;-64
2021/07/23 11:17:13;;;;;;;;;;;;;;;29.34;30.19;99580.75;5050501;28;799;-64
2021/07/23 11:19:45;;;;;;;;;;;;;;;29.68;29.50;99583.88;5050489;28;993;-65
2021/07/23 11:22:12;;;;;;;;;;;;;;;29.50;29.53;99577.66;5050387;28;810;-64
2021/07/23 11:24:39;;;;;;;;;;;;;;;29.46;29.67;99577.22;5050422;28;1913;-64
2021/07/23 11:27:05;;;;;;;;;;;;;;;29.59;29.68;99587.13;5050280;28;804;-64
2021/07/23 11:29:33;;;;;;;;;;;;;;;30.02;29.19;99577.66;5050366;28;826;-64
2021/07/23 11:32:08;;;;;;;;;;;;;;;30.19;29.01;99572.44;5050332;28;901;-64
2021/07/23 11:34:45;;;;;;;;;;;;;;;30.08;28.99;99566.94;5050213;28;890;-64
2021/07/23 11:37:15;;;;;;;;;;;;;;;29.85;29.12;99573.03;5050175;28;857;-66
2021/07/23 11:39:55;;;;;;;;;;;;;;;29.20;30.35;99574.22;5050163;28;889;-64
2021/07/23 11:42:23;;;;;;;;;;;;;;;28.62;31.01;99578.28;5050081;28;877;-63
2021/07/23 11:44:52;;;;;;;;;;;;;;;29.22;30.85;99558.16;5050269;28;1882;-63
2021/07/23 11:47:27;;;;;;;;;;;;;;;30.02;30.33;99558.50;5050110;28;996;-63
2021/07/23 11:49:56;;;;;;;;;;;;;;;30.33;29.42;99562.63;5050332;28;889;-64
2021/07/23 11:52:26;;;;;;;;;;;;;;;30.40;29.69;99575.44;5050348;28;822;-65
2021/07/23 11:55:03;;;;;;;;;;;;;;;29.63;30.12;99557.03;5050150;28;854;-64
2021/07/23 11:57:31;;;;;;;;;;;;;;;30.57;29.84;99555.16;5049967;28;819;-64
2021/07/23 11:59:58;;;;;;;;;;;;;;;30.85;29.43;99546.03;5049931;28;850;-64
2021/07/23 12:02:26;;;;;;;;;;;;;;;30.01;29.47;99553.34;5050164;28;815;-64
2021/07/23 12:05:06;;;;;;;;;;;;;;;29.31;30.49;99554.16;5049874;28;1918;-64
2021/07/23 12:07:34;;;;;;;;;;;;;;;29.43;30.62;99543.38;5049703;28;876;-63
2021/07/23 12:10:01;;;;;;;;;;;;;;;30.15;29.52;99549.22;5049852;28;810;-63
2021/07/23 12:12:28;;;;;;;;;;;;;;;30.90;29.32;99553.00;5051141;28;883;-64
2021/07/23 12:15:07;;;;;;;;;;;;;;;31.20;27.78;99555.44;4915816;28;3355220;-63
2021/07/23 12:17:35;;;;;;;;;;;;;;;31.50;28.52;99540.75;5035104;28;796;-64
2021/07/23 12:20:02;;;;;;;;;;;;;;;31.91;26.63;99550.66;5034708;28;854;-64
2021/07/23 12:22:29;;;;;;;;;;;;;;;32.06;26.61;99540.69;5034627;28;822;-63
2021/07/23 12:24:56;;;;;;;;;;;;;;;31.88;26.33;99539.59;5034442;28;1977;-63
2021/07/23 12:27:23;;;;;;;;;;;;;;;31.94;26.45;99525.91;5034562;28;827;-65
2021/07/23 12:29:51;;;;;;;;;;;;;;;31.77;26.55;99552.03;5034481;28;830;-64
2021/07/23 12:32:26;;;;;;;;;;;;;;;30.99;27.01;99555.38;5034396;28;874;-64
2021/07/23 12:34:57;;;;;;;;;;;;;;;30.41;28.49;99542.78;5034154;28;910;-64
2021/07/23 12:37:22;;;;;;;;;;;;;;;30.81;27.69;99541.97;5033968;28;855;-64
2021/07/23 12:39:50;;;;;;;;;;;;;;;30.62;28.42;99547.81;5034168;28;815;-64
2021/07/23 12:42:18;;;;;;;;;;;;;;;30.53;28.15;99543.31;5034031;28;853;-64
2021/07/23 12:44:45;;;;;;;;;;;;;;;30.25;28.93;99543.84;5033866;28;1956;-63
2021/07/23 12:47:18;;;;;;;;;;;;;;;29.60;29.10;99534.56;5033865;28;806;-65
2021/07/23 12:49:45;;;;;;;;;;;;;;;29.30;29.93;99535.53;5033894;28;806;-63
2021/07/23 12:52:13;;;;;;;;;;;;;;;29.64;29.82;99547.19;5034071;28;829;-64
2021/07/23 12:54:40;;;;;;;;;;;;;;;29.65;29.96;99547.94;5034352;28;881;-64
2021/07/23 12:57:17;;;;;;;;;;;;;;;30.67;28.96;99544.09;5034482;28;778;-64
2021/07/23 12:59:45;;;;;;;;;;;;;;;31.52;27.49;99535.25;5033641;28;858;-64
2021/07/23 13:02:12;;;;;;;;;;;;;;;31.74;26.93;99530.31;5033687;28;894;-63
2021/07/23 13:04:39;;;;;;;;;;;;;;;31.76;26.39;99539.09;5033400;28;1882;-64
2021/07/23 13:07:07;;;;;;;;;;;;;;;32.18;25.92;99544.81;5032162;28;814;-64
2021/07/23 13:09:34;;;;;;;;;;;;;;;32.38;25.76;99540.34;5033303;28;933;-67
2021/07/23 13:12:01;;;;;;;;;;;;;;;32.19;25.26;99540.59;5033717;28;810;-64
2021/07/23 13:14:29;;;;;;;;;;;;;;;32.41;25.64;99532.75;5038732;28;1426;-64
2021/07/23 13:16:55;;;;;;;;;;;;;;;33.31;25.36;99533.75;5053236;28;897;-64
2021/07/23 13:19:21;;;;;;;;;;;;;;;33.98;24.76;99538.63;5053238;28;1095;-64